Main page
METAR-TAF:

METAR-TAF

Airports :

Kufra Airport

Kufra, Libya

latitude: 24-13N, longitude: 023-18E, elevation: 417 m

METAR: missing

Time: 22:04 (20:04 UTC)

Forecast

The report was made 3 hours and 4 minutes ago, at 17:00 UTC
Forecast valid from 13 at 18 UTC to 14 at 18 UTC
Wind 2 kt from variable directions
Visibility 10 km or more
no clouds below 1500 m and no cumulonimbus
Becoming
from 14 at 09 UTC to 14 at 11 UTC
Wind 10 kt from the East/Northeast

TAF: HLKF 131700Z 1318/1418 VRB02KT CAVOK BECMG 1409/1411 06010KT

Weather observations and forecasts of more than 4000 airports (METAR and TAF reports).

The available stations are represented by yellow and red dots on the map.

Hover mouse over dot to see the name of the station.

Then click to see weather observations and forecasts.

To change the map : click on the green buttons with a black cross to zoom in, on the green button with a dash to zoom out, or on the green arrows for adjacent maps.


METAR-TAF: